Time;durP1;ratioP1;P1;durP2;ratioP2;P2;SDS_P1;SDS_P2;PMS_P1;PMS_P2;Temp;Humidity;BMP_temperature;BMP_pressure;BME280_temperature;BME280_humidity;BME280_pressure;Samples;Min_cycle;Max_cycle;Signal;HPM_P1;HPM_P2
2023/01/26 00:00:06;;;;;;;37.70;17.20;;;2.80;99.90;;;;;;5082102;28;20200;-69
2023/01/26 00:02:31;;;;;;;46.50;16.67;;;2.70;99.90;;;;;;5122368;28;20190;-69
2023/01/26 00:04:57;;;;;;;43.67;17.10;;;2.80;99.90;;;;;;5091938;28;20195;-69
2023/01/26 00:07:23;;;;;;;35.23;16.40;;;2.90;99.90;;;;;;5089018;28;20272;-70
2023/01/26 00:09:48;;;;;;;30.03;13.53;;;2.80;99.90;;;;;;5090590;28;20184;-69
2023/01/26 00:12:14;;;;;;;39.57;15.07;;;2.70;99.90;;;;;;5089423;28;20219;-69
2023/01/26 00:14:48;;;;;;;30.67;15.40;;;2.60;99.90;;;;;;5091589;28;20617;-69
2023/01/26 00:17:15;;;;;;;37.00;18.07;;;2.50;99.90;;;;;;5121460;28;20241;-68
2023/01/26 00:19:41;;;;;;;39.87;19.10;;;2.70;99.90;;;;;;5090417;28;20185;-68
2023/01/26 00:22:07;;;;;;;33.50;15.37;;;2.70;99.90;;;;;;5091954;28;20188;-68
2023/01/26 00:24:32;;;;;;;38.47;17.73;;;2.60;99.90;;;;;;5123921;28;20196;-68
2023/01/26 00:26:58;;;;;;;46.47;16.80;;;2.50;99.90;;;;;;5091533;28;20184;-69
2023/01/26 00:29:23;;;;;;;44.23;19.27;;;2.60;99.90;;;;;;5108788;28;20181;-69
2023/01/26 00:31:49;;;;;;;34.93;15.67;;;2.70;99.90;;;;;;5090634;28;20267;-69
2023/01/26 00:34:15;;;;;;;41.00;17.77;;;2.50;99.90;;;;;;5090649;28;20263;-69
2023/01/26 00:36:40;;;;;;;41.27;18.33;;;2.50;99.90;;;;;;5091356;28;20191;-69
2023/01/26 00:39:06;;;;;;;41.00;16.27;;;2.50;99.90;;;;;;5124494;27;20192;-69
2023/01/26 00:44:16;;;;;;;22.30;13.80;;;2.30;99.90;;;;;;5089282;28;20212;-69
2023/01/26 00:46:41;;;;;;;40.27;17.03;;;2.20;99.90;;;;;;5120154;27;20629;-69
2023/01/26 00:49:07;;;;;;;40.10;14.07;;;2.40;99.90;;;;;;5080715;28;20657;-69
2023/01/26 00:51:33;;;;;;;43.13;15.37;;;2.50;99.90;;;;;;5121872;27;20193;-69
2023/01/26 00:53:58;;;;;;;30.37;15.70;;;2.50;99.90;;;;;;5092818;28;20268;-69
2023/01/26 00:56:26;;;;;;;34.57;17.90;;;2.40;99.90;;;;;;5082607;28;20575;-69
2023/01/26 00:58:52;;;;;;;42.67;17.13;;;2.50;99.90;;;;;;5094002;28;20207;-69
2023/01/26 01:01:18;;;;;;;42.07;14.07;;;2.60;99.90;;;;;;5094117;28;20578;-69
2023/01/26 01:03:43;;;;;;;39.23;15.90;;;2.70;99.90;;;;;;5095311;28;20211;-69
2023/01/26 01:06:09;;;;;;;36.87;13.60;;;2.70;99.90;;;;;;5091701;28;20547;-69
2023/01/26 01:08:35;;;;;;;42.77;17.40;;;2.70;99.90;;;;;;5092906;28;20242;-69
2023/01/26 01:11:09;;;;;;;54.17;18.83;;;2.60;99.90;;;;;;5079889;28;20193;-68
2023/01/26 01:13:35;;;;;;;50.37;17.60;;;2.60;99.90;;;;;;5079325;28;20172;-69
2023/01/26 01:16:07;;;;;;;40.80;16.87;;;2.60;99.90;;;;;;5094165;28;20204;-69
2023/01/26 01:18:34;;;;;;;35.90;13.93;;;2.40;99.90;;;;;;5094973;28;20230;-69
2023/01/26 01:21:04;;;;;;;36.57;14.97;;;2.40;99.90;;;;;;5086398;28;20197;-69
2023/01/26 01:23:29;;;;;;;31.23;13.77;;;2.50;99.90;;;;;;5092777;28;20181;-69
2023/01/26 01:25:59;;;;;;;37.70;17.70;;;2.60;99.90;;;;;;5094073;28;20192;-69
2023/01/26 01:28:25;;;;;;;36.10;15.47;;;2.50;99.90;;;;;;5085889;28;20193;-69
2023/01/26 01:30:51;;;;;;;41.97;14.50;;;2.50;99.90;;;;;;5085680;28;20181;-69
2023/01/26 01:33:17;;;;;;;45.60;18.13;;;2.40;99.90;;;;;;5081090;28;20653;-69
2023/01/26 01:35:42;;;;;;;38.70;14.53;;;2.50;99.90;;;;;;5074228;28;20177;-69
2023/01/26 01:38:08;;;;;;;42.67;17.13;;;2.70;99.90;;;;;;5078990;28;20617;-69
2023/01/26 01:40:34;;;;;;;35.87;16.77;;;2.70;99.90;;;;;;5077104;28;20212;-69
2023/01/26 01:42:59;;;;;;;33.47;16.10;;;2.70;99.90;;;;;;5094856;28;20641;-69
2023/01/26 01:45:25;;;;;;;37.03;16.40;;;2.60;99.90;;;;;;5087773;28;20263;-70
2023/01/26 01:47:57;;;;;;;43.57;18.83;;;2.60;99.90;;;;;;5083331;28;20630;-69
2023/01/26 01:50:24;;;;;;;45.37;17.90;;;2.70;99.90;;;;;;5082985;28;20184;-69
2023/01/26 01:52:51;;;;;;;41.03;18.93;;;2.60;99.90;;;;;;5093673;28;20181;-70
2023/01/26 01:55:16;;;;;;;37.83;18.57;;;2.60;99.90;;;;;;5094170;28;20530;-69
2023/01/26 01:57:47;;;;;;;38.23;16.23;;;2.80;99.90;;;;;;5075666;28;20304;-69
2023/01/26 02:00:16;;;;;;;32.80;15.07;;;2.80;99.90;;;;;;5088943;28;20659;-69
2023/01/26 02:03:09;;;;;;;38.33;20.10;;;2.80;99.90;;;;;;5090660;28;20176;-69
2023/01/26 02:06:00;;;;;;;55.00;20.07;;;2.70;99.90;;;;;;5091141;28;20177;-71
2023/01/26 02:08:32;;;;;;;47.53;16.10;;;2.60;99.90;;;;;;5088505;28;20314;-71
2023/01/26 02:11:02;;;;;;;43.10;17.90;;;2.60;99.90;;;;;;5093515;28;20217;-70
2023/01/26 02:13:30;;;;;;;44.37;18.13;;;2.70;99.90;;;;;;5093524;28;20649;-70
2023/01/26 02:15:58;;;;;;;45.60;16.97;;;2.90;99.90;;;;;;5080851;28;20204;-70
2023/01/26 02:18:24;;;;;;;40.17;18.73;;;2.80;99.90;;;;;;5082834;28;20205;-70
2023/01/26 02:20:54;;;;;;;44.23;16.93;;;2.60;99.90;;;;;;5083183;28;20543;-68
2023/01/26 02:23:50;;;;;;;38.03;16.30;;;2.60;99.90;;;;;;5088144;28;20177;-69
2023/01/26 02:26:21;;;;;;;52.70;19.90;;;2.50;99.90;;;;;;5087674;28;20188;-69
2023/01/26 02:28:48;;;;;;;48.30;19.50;;;2.60;99.90;;;;;;5115316;27;20184;-68
2023/01/26 02:31:15;;;;;;;41.17;19.27;;;2.70;99.90;;;;;;5089043;28;20191;-69
2023/01/26 02:33:41;;;;;;;40.63;16.20;;;2.70;99.90;;;;;;5079526;28;20536;-69
2023/01/26 02:36:20;;;;;;;47.73;21.70;;;2.60;99.90;;;;;;5093103;28;20648;-69
2023/01/26 02:39:11;;;;;;;39.10;16.47;;;2.60;99.90;;;;;;5088451;28;20204;-69
2023/01/26 02:44:23;;;;;;;44.83;14.73;;;2.60;99.90;;;;;;5089411;28;20690;-68
2023/01/26 02:46:48;;;;;;;35.83;15.70;;;2.70;99.90;;;;;;5089784;28;20184;-69
2023/01/26 02:51:58;;;;;;;41.80;15.83;;;2.80;99.90;;;;;;5091092;28;20179;-69
2023/01/26 02:57:08;;;;;;;43.00;21.97;;;3.10;99.90;;;;;;5091695;28;20350;-69
2023/01/26 02:59:34;;;;;;;31.27;16.83;;;2.90;99.90;;;;;;5081805;28;20265;-69
2023/01/26 03:01:59;;;;;;;37.07;14.97;;;2.80;99.90;;;;;;5082275;28;20644;-69
2023/01/26 03:04:25;;;;;;;37.13;15.83;;;2.70;99.90;;;;;;5083699;28;20244;-70
2023/01/26 03:06:51;;;;;;;39.87;17.30;;;2.70;99.90;;;;;;5070006;28;20185;-69
2023/01/26 03:09:17;;;;;;;48.93;20.03;;;2.70;99.90;;;;;;5092977;28;20192;-69
2023/01/26 03:11:42;;;;;;;44.83;17.83;;;2.60;99.90;;;;;;5091523;28;20189;-69
2023/01/26 03:14:12;;;;;;;40.97;15.13;;;2.70;99.90;;;;;;5092455;28;20645;-69
2023/01/26 03:16:38;;;;;;;37.63;16.43;;;2.70;99.90;;;;;;5125221;27;20189;-69
2023/01/26 03:29:46;;;;;;;31.10;13.33;;;2.70;99.90;;;;;;5085773;28;20676;-69
2023/01/26 03:32:13;;;;;;;37.83;14.90;;;2.60;99.90;;;;;;5082090;28;20189;-69
2023/01/26 03:34:38;;;;;;;34.80;15.30;;;2.50;99.90;;;;;;5088396;28;20184;-69
2023/01/26 03:37:05;;;;;;;42.57;16.27;;;2.50;99.90;;;;;;5114034;27;20227;-69
2023/01/26 03:56:20;;;;;;;26.13;13.13;;;2.80;99.90;;;;;;5081460;28;20242;-69
2023/01/26 03:58:48;;;;;;;38.10;16.10;;;2.80;99.90;;;;;;5089988;28;20222;-69
2023/01/26 04:01:18;;;;;;;31.07;13.07;;;2.70;99.90;;;;;;5089455;28;20184;-69
2023/01/26 04:09:17;;;;;;;25.73;12.97;;;2.70;99.90;;;;;;5090338;28;20276;-69
2023/01/26 04:11:43;;;;;;;29.90;13.33;;;2.70;99.90;;;;;;5095399;28;20283;-69
2023/01/26 04:22:27;;;;;;;29.13;12.77;;;2.70;99.90;;;;;;5092226;28;20227;-69
2023/01/26 04:24:52;;;;;;;32.67;14.63;;;2.90;99.90;;;;;;5094856;28;20192;-69
2023/01/26 04:27:18;;;;;;;27.13;12.53;;;2.90;99.90;;;;;;5091840;28;20203;-69
2023/01/26 04:29:44;;;;;;;33.90;12.13;;;2.80;99.90;;;;;;5095562;28;20188;-69
2023/01/26 04:32:09;;;;;;;40.47;14.10;;;2.80;99.90;;;;;;5093869;28;20223;-69
2023/01/26 04:34:35;;;;;;;27.83;12.73;;;2.80;99.90;;;;;;5094969;28;20185;-69
2023/01/26 04:37:01;;;;;;;33.97;12.70;;;2.70;99.90;;;;;;5120079;27;20353;-69
2023/01/26 04:39:26;;;;;;;28.93;11.93;;;3.00;99.90;;;;;;5090970;28;20323;-69
2023/01/26 04:41:52;;;;;;;21.37;9.70;;;3.00;99.90;;;;;;5085303;28;20267;-69
2023/01/26 04:44:18;;;;;;;29.07;12.17;;;2.80;99.90;;;;;;5093025;28;20246;-70
2023/01/26 04:46:44;;;;;;;27.97;13.80;;;2.90;99.90;;;;;;5079206;28;20190;-69
2023/01/26 04:49:10;;;;;;;24.03;10.27;;;2.80;99.90;;;;;;5087529;28;20187;-69
2023/01/26 04:51:36;;;;;;;31.77;12.33;;;2.80;99.90;;;;;;5119895;27;20267;-69
2023/01/26 04:54:01;;;;;;;25.10;11.00;;;2.80;99.90;;;;;;5086716;28;20185;-70
2023/01/26 04:56:30;;;;;;;29.80;10.73;;;2.80;99.90;;;;;;5088332;28;20278;-70
2023/01/26 04:58:58;;;;;;;21.63;10.03;;;2.80;99.90;;;;;;5088243;28;20228;-70
2023/01/26 05:01:24;;;;;;;17.30;10.93;;;2.90;99.90;;;;;;5089487;28;20180;-70
2023/01/26 05:03:50;;;;;;;29.63;13.23;;;2.80;99.90;;;;;;5080181;28;20590;-70
2023/01/26 05:06:16;;;;;;;23.57;11.27;;;3.00;99.90;;;;;;5124180;27;20667;-70
2023/01/26 05:08:41;;;;;;;21.40;11.07;;;3.00;99.90;;;;;;5093195;28;20199;-70
2023/01/26 05:11:07;;;;;;;25.63;11.73;;;2.90;99.90;;;;;;5082189;28;20259;-69
2023/01/26 05:13:34;;;;;;;26.70;10.53;;;2.80;99.90;;;;;;5087763;28;20187;-70
2023/01/26 05:16:04;;;;;;;38.77;12.27;;;2.90;99.90;;;;;;5088835;28;20185;-70
2023/01/26 05:18:30;;;;;;;23.90;10.87;;;2.80;99.90;;;;;;5081432;28;20245;-69
2023/01/26 05:20:55;;;;;;;24.77;11.87;;;2.90;99.90;;;;;;5093151;28;20286;-69
2023/01/26 05:23:21;;;;;;;24.63;9.57;;;2.90;99.90;;;;;;5091944;28;20212;-69
2023/01/26 05:25:47;;;;;;;23.33;11.10;;;2.80;99.90;;;;;;5080163;28;20365;-69
2023/01/26 05:28:13;;;;;;;29.30;11.40;;;2.90;99.90;;;;;;5093495;28;20188;-70
2023/01/26 05:30:38;;;;;;;26.50;11.90;;;2.80;99.90;;;;;;5111711;27;20667;-70
2023/01/26 05:33:06;;;;;;;27.33;11.17;;;2.90;99.90;;;;;;5085418;28;20186;-69
2023/01/26 05:35:33;;;;;;;27.47;10.77;;;2.90;99.90;;;;;;5076195;28;20181;-69
2023/01/26 05:37:59;;;;;;;22.33;9.07;;;2.90;99.90;;;;;;5085477;28;20215;-70
2023/01/26 05:40:25;;;;;;;24.03;9.53;;;2.90;99.90;;;;;;5121987;27;20188;-70
2023/01/26 05:42:52;;;;;;;25.67;10.43;;;2.90;99.90;;;;;;5080292;28;20208;-69
2023/01/26 05:45:18;;;;;;;27.07;10.80;;;2.90;99.90;;;;;;5087242;28;20189;-70
2023/01/26 05:47:45;;;;;;;22.50;11.63;;;2.90;99.90;;;;;;5086967;28;20196;-70
2023/01/26 05:50:12;;;;;;;29.40;11.50;;;2.90;99.90;;;;;;5122600;27;20211;-69
2023/01/26 05:52:38;;;;;;;20.67;10.03;;;2.80;99.90;;;;;;5088307;28;20216;-69
2023/01/26 05:55:05;;;;;;;24.73;11.50;;;2.70;99.90;;;;;;5093093;28;20215;-70
2023/01/26 05:57:30;;;;;;;22.63;10.47;;;2.80;99.90;;;;;;5091366;28;20322;-69
2023/01/26 05:59:56;;;;;;;24.73;8.90;;;2.80;99.90;;;;;;5084190;28;20275;-69
2023/01/26 06:02:22;;;;;;;24.37;10.13;;;2.80;99.90;;;;;;5080310;28;20280;-69
2023/01/26 06:04:48;;;;;;;14.27;7.57;;;2.90;99.90;;;;;;5080742;28;20206;-70
2023/01/26 06:07:13;;;;;;;20.57;8.40;;;2.90;99.90;;;;;;5078941;28;20199;-69
2023/01/26 06:09:40;;;;;;;20.13;9.17;;;2.90;99.90;;;;;;5082545;28;20185;-69
2023/01/26 06:12:11;;;;;;;17.10;8.47;;;3.00;99.90;;;;;;5076668;28;20609;-68
2023/01/26 06:14:37;;;;;;;17.00;8.77;;;2.90;99.90;;;;;;5098065;28;20285;-68
2023/01/26 06:17:03;;;;;;;16.10;8.60;;;2.90;99.90;;;;;;5092983;28;20244;-69
2023/01/26 06:19:28;;;;;;;18.33;8.03;;;2.90;99.90;;;;;;5109764;28;20189;-69
2023/01/26 06:21:54;;;;;;;22.67;9.30;;;3.00;99.90;;;;;;5092407;28;20600;-68
2023/01/26 06:24:19;;;;;;;21.53;10.07;;;2.90;99.90;;;;;;5095846;28;20193;-69
2023/01/26 06:26:49;;;;;;;24.30;10.17;;;2.90;99.90;;;;;;5093828;28;20195;-69
2023/01/26 06:29:14;;;;;;;21.43;9.97;;;2.90;99.90;;;;;;5092745;28;20540;-69
2023/01/26 06:31:40;;;;;;;19.93;11.17;;;3.00;99.90;;;;;;5087516;28;20177;-68
2023/01/26 06:34:07;;;;;;;20.17;8.83;;;3.00;99.90;;;;;;5085374;28;20595;-68
2023/01/26 06:36:33;;;;;;;19.03;9.20;;;2.90;99.90;;;;;;5091230;28;20177;-68
2023/01/26 06:38:59;;;;;;;18.47;8.70;;;2.90;99.90;;;;;;5092787;28;20239;-68
2023/01/26 06:41:25;;;;;;;27.60;10.13;;;2.90;99.90;;;;;;5125742;27;20188;-68
2023/01/26 06:43:50;;;;;;;24.20;9.50;;;2.80;99.90;;;;;;5092631;28;20306;-68
2023/01/26 06:46:18;;;;;;;28.27;9.83;;;2.90;99.90;;;;;;5092284;28;20301;-68
2023/01/26 06:48:43;;;;;;;18.27;8.93;;;2.90;99.90;;;;;;5093818;28;20660;-68
2023/01/26 06:51:15;;;;;;;25.90;10.17;;;3.00;99.90;;;;;;5092324;28;20191;-67
2023/01/26 06:53:59;;;;;;;21.67;8.33;;;3.00;99.90;;;;;;5090448;28;20184;-68
2023/01/26 06:56:27;;;;;;;26.30;10.20;;;3.00;99.90;;;;;;5093017;28;20236;-68
2023/01/26 06:58:53;;;;;;;26.33;10.33;;;3.10;99.90;;;;;;5078601;28;20239;-68
2023/01/26 07:01:21;;;;;;;22.50;9.33;;;3.00;99.90;;;;;;5082979;28;20220;-68
2023/01/26 07:03:48;;;;;;;17.03;8.60;;;3.00;99.90;;;;;;5091206;28;20177;-67
2023/01/26 07:06:13;;;;;;;22.83;7.67;;;3.00;99.90;;;;;;5093130;28;20204;-66
2023/01/26 07:08:40;;;;;;;19.47;8.20;;;2.90;99.90;;;;;;5108165;28;20193;-67
2023/01/26 07:11:07;;;;;;;19.17;9.47;;;3.00;99.90;;;;;;5092498;28;20180;-68
2023/01/26 07:13:33;;;;;;;22.63;8.70;;;2.90;99.90;;;;;;5091701;28;20541;-68
2023/01/26 07:16:14;;;;;;;20.93;8.27;;;2.80;99.90;;;;;;5092852;28;20180;-68
2023/01/26 07:18:41;;;;;;;16.37;7.83;;;2.80;99.90;;;;;;5090976;28;20587;-67
2023/01/26 07:21:13;;;;;;;17.37;7.87;;;2.90;99.90;;;;;;5092404;28;20271;-68
2023/01/26 07:23:39;;;;;;;18.67;9.33;;;2.70;99.90;;;;;;5087504;28;20181;-68
2023/01/26 07:26:06;;;;;;;16.80;9.63;;;2.80;99.90;;;;;;5091646;28;20188;-68
2023/01/26 07:28:33;;;;;;;15.57;8.80;;;2.90;99.90;;;;;;5089356;28;20208;-68
2023/01/26 07:31:03;;;;;;;23.23;9.17;;;2.80;99.90;;;;;;5090507;28;20237;-69
2023/01/26 07:33:30;;;;;;;23.43;11.07;;;2.90;99.90;;;;;;5085743;28;20176;-67
2023/01/26 07:35:56;;;;;;;18.43;9.47;;;2.90;99.90;;;;;;5090082;28;20193;-68
2023/01/26 07:38:23;;;;;;;26.70;11.27;;;3.00;99.90;;;;;;5113725;27;20262;-68
2023/01/26 07:40:49;;;;;;;13.13;7.83;;;3.00;99.90;;;;;;5089342;28;20255;-68
2023/01/26 07:43:16;;;;;;;29.90;12.20;;;3.00;99.90;;;;;;5090815;28;20181;-68
2023/01/26 07:45:45;;;;;;;14.33;8.53;;;3.00;99.90;;;;;;5084682;28;20191;-68
2023/01/26 07:48:11;;;;;;;21.77;8.83;;;3.00;99.90;;;;;;5081479;28;20222;-68
2023/01/26 07:50:37;;;;;;;17.40;8.70;;;2.90;99.90;;;;;;5079901;28;20630;-68
2023/01/26 07:53:02;;;;;;;22.53;8.73;;;3.10;99.90;;;;;;5089915;28;20322;-69
2023/01/26 07:55:28;;;;;;;18.90;8.60;;;3.10;99.90;;;;;;5089039;28;20218;-69
2023/01/26 07:57:54;;;;;;;18.83;9.17;;;3.20;99.90;;;;;;5080113;28;20244;-69
2023/01/26 08:00:21;;;;;;;22.83;9.37;;;3.10;99.90;;;;;;5090136;28;20193;-68
2023/01/26 08:02:50;;;;;;;17.67;9.13;;;3.10;99.90;;;;;;5097294;28;20237;-69
2023/01/26 08:05:16;;;;;;;26.37;10.43;;;3.20;99.90;;;;;;5094770;28;20176;-69
2023/01/26 08:07:41;;;;;;;27.00;11.13;;;3.10;99.90;;;;;;5093546;28;20196;-69
2023/01/26 08:10:09;;;;;;;22.20;10.50;;;3.00;99.90;;;;;;5108905;28;20649;-69
2023/01/26 08:12:36;;;;;;;19.00;9.60;;;3.10;99.90;;;;;;5088445;28;20177;-69
2023/01/26 08:15:02;;;;;;;24.23;9.63;;;3.20;99.90;;;;;;5090003;28;20243;-69
2023/01/26 08:17:29;;;;;;;20.97;8.80;;;3.10;99.90;;;;;;5125164;27;20283;-68
2023/01/26 08:19:54;;;;;;;26.90;13.07;;;3.10;99.90;;;;;;5095534;28;20247;-69
2023/01/26 08:22:20;;;;;;;18.47;9.57;;;3.00;99.90;;;;;;5093945;28;20188;-68
2023/01/26 08:24:46;;;;;;;25.87;10.07;;;3.20;99.90;;;;;;5087937;28;20252;-68
2023/01/26 08:27:11;;;;;;;18.63;8.97;;;3.20;99.90;;;;;;5079593;28;20185;-68
2023/01/26 08:29:37;;;;;;;23.67;9.27;;;3.40;99.90;;;;;;5098578;28;20891;-69
2023/01/26 08:32:03;;;;;;;20.67;9.17;;;3.40;99.90;;;;;;5100530;28;20324;-68
2023/01/26 08:34:29;;;;;;;25.53;10.17;;;3.30;99.90;;;;;;5097315;28;20244;-69
2023/01/26 08:36:54;;;;;;;29.40;10.40;;;3.20;99.90;;;;;;5071830;28;20185;-68
2023/01/26 08:39:20;;;;;;;20.13;8.40;;;3.20;99.90;;;;;;5087137;28;20195;-69
2023/01/26 08:41:46;;;;;;;23.13;10.20;;;3.20;99.90;;;;;;5099919;28;20680;-69
2023/01/26 08:44:12;;;;;;;21.17;9.10;;;3.30;99.90;;;;;;5119482;27;20199;-68
2023/01/26 08:46:38;;;;;;;20.23;10.07;;;3.40;99.90;;;;;;5088440;28;20551;-69
2023/01/26 08:49:03;;;;;;;20.23;9.30;;;3.60;99.90;;;;;;5092319;28;20195;-69
2023/01/26 08:51:29;;;;;;;22.53;8.40;;;3.70;99.90;;;;;;5085477;28;20185;-69
2023/01/26 08:53:55;;;;;;;18.47;9.30;;;3.60;99.90;;;;;;5087681;28;20185;-69
2023/01/26 08:56:21;;;;;;;18.90;9.27;;;3.60;99.90;;;;;;5080706;28;20232;-68
2023/01/26 08:58:47;;;;;;;21.23;8.50;;;3.50;99.90;;;;;;5086951;28;20209;-69
2023/01/26 09:01:15;;;;;;;25.30;9.50;;;3.50;99.90;;;;;;5088931;28;20182;-69
2023/01/26 09:03:42;;;;;;;18.57;7.67;;;3.80;99.90;;;;;;5091907;28;20372;-70
2023/01/26 09:06:09;;;;;;;17.37;7.90;;;3.80;99.90;;;;;;5091121;28;20234;-70
2023/01/26 09:08:35;;;;;;;16.33;8.37;;;3.80;99.90;;;;;;5088167;28;20184;-68
2023/01/26 09:11:03;;;;;;;21.10;9.70;;;3.80;99.90;;;;;;5087156;28;20185;-69
2023/01/26 09:13:29;;;;;;;14.27;7.87;;;3.80;99.90;;;;;;5090996;28;20195;-69
2023/01/26 09:15:55;;;;;;;19.40;8.20;;;3.80;99.90;;;;;;5085189;28;20185;-68
2023/01/26 09:18:20;;;;;;;34.23;9.67;;;3.80;99.90;;;;;;5082058;28;20744;-69
2023/01/26 09:20:46;;;;;;;23.50;9.40;;;3.90;99.90;;;;;;5111010;27;20303;-69
2023/01/26 09:23:12;;;;;;;18.67;8.17;;;4.00;99.90;;;;;;5075580;28;20185;-69
2023/01/26 09:25:38;;;;;;;18.03;7.87;;;4.10;99.90;;;;;;5082071;28;20185;-68
2023/01/26 09:28:05;;;;;;;17.07;10.07;;;4.00;99.90;;;;;;5086069;28;20189;-68
2023/01/26 09:30:31;;;;;;;17.90;8.53;;;4.00;99.90;;;;;;5091619;28;20547;-68
2023/01/26 09:33:02;;;;;;;18.37;8.23;;;3.90;99.90;;;;;;5090208;28;20188;-68
2023/01/26 09:35:28;;;;;;;17.53;8.40;;;3.80;99.90;;;;;;5087508;28;20193;-69
2023/01/26 09:37:54;;;;;;;16.80;9.03;;;3.70;99.90;;;;;;5092345;28;20212;-69
2023/01/26 09:41:01;;;;;;;21.13;9.17;;;3.80;99.90;;;;;;5088895;28;20362;-68
2023/01/26 09:43:53;;;;;;;11.53;6.80;;;3.80;99.90;;;;;;5066957;28;20276;-68
2023/01/26 09:46:24;;;;;;;17.17;8.00;;;3.90;99.90;;;;;;5070564;28;20197;-68
2023/01/26 09:49:12;;;;;;;16.50;8.90;;;4.00;99.90;;;;;;5094730;28;20584;-68
2023/01/26 09:51:45;;;;;;;18.33;9.17;;;4.00;99.90;;;;;;5082314;28;20181;-68
2023/01/26 09:54:20;;;;;;;15.43;8.13;;;4.20;99.90;;;;;;5106554;28;20650;-68
2023/01/26 09:56:45;;;;;;;15.47;8.80;;;4.10;99.90;;;;;;5074125;28;20311;-68
2023/01/26 09:59:33;;;;;;;16.00;7.47;;;4.20;99.90;;;;;;5128876;27;20288;-68
2023/01/26 10:01:59;;;;;;;16.53;9.33;;;4.20;99.90;;;;;;5086511;28;20189;-68
2023/01/26 10:04:38;;;;;;;16.50;7.17;;;4.10;99.90;;;;;;5084807;28;20709;-68
2023/01/26 10:07:13;;;;;;;19.63;9.67;;;4.30;99.90;;;;;;5093244;28;20654;-68
2023/01/26 10:09:41;;;;;;;13.43;7.93;;;4.30;99.90;;;;;;5084188;28;20237;-67
2023/01/26 10:12:19;;;;;;;19.77;9.63;;;4.40;99.90;;;;;;5093254;28;20180;-67
2023/01/26 10:14:48;;;;;;;15.73;7.57;;;4.50;99.90;;;;;;5093526;28;20259;-68
2023/01/26 10:17:45;;;;;;;12.90;8.13;;;4.40;99.90;;;;;;5093193;28;20680;-68
2023/01/26 10:20:14;;;;;;;20.20;9.50;;;4.50;99.90;;;;;;5083538;28;20200;-68
2023/01/26 10:22:52;;;;;;;16.07;8.57;;;4.60;99.90;;;;;;5089430;28;20257;-68
2023/01/26 10:25:28;;;;;;;18.67;8.47;;;4.80;99.90;;;;;;5081812;28;20187;-68
2023/01/26 10:27:53;;;;;;;20.30;9.37;;;4.60;99.90;;;;;;5090426;28;20222;-67
2023/01/26 10:30:20;;;;;;;18.67;9.70;;;4.70;99.90;;;;;;5087153;28;20188;-67
2023/01/26 10:32:49;;;;;;;15.17;8.40;;;4.70;99.90;;;;;;5079493;28;20185;-66
2023/01/26 10:35:24;;;;;;;22.63;10.70;;;4.80;99.90;;;;;;5081298;28;20189;-66
2023/01/26 10:37:55;;;;;;;22.47;10.30;;;4.80;99.90;;;;;;5093001;28;20231;-69
2023/01/26 10:40:20;;;;;;;19.23;9.83;;;4.70;99.90;;;;;;5088784;28;20193;-69
2023/01/26 10:42:57;;;;;;;23.57;9.40;;;4.70;99.90;;;;;;5093436;28;20204;-68
2023/01/26 10:45:29;;;;;;;26.20;10.30;;;4.80;99.90;;;;;;5082642;28;20220;-68
2023/01/26 10:48:02;;;;;;;22.73;9.87;;;4.70;99.90;;;;;;5088575;28;20212;-67
2023/01/26 10:50:28;;;;;;;25.87;12.00;;;4.80;99.90;;;;;;5080560;28;20185;-68
2023/01/26 10:53:02;;;;;;;25.70;11.20;;;4.70;99.90;;;;;;5084622;28;20237;-68
2023/01/26 10:55:29;;;;;;;25.20;10.73;;;4.70;99.90;;;;;;5092682;28;20580;-68
2023/01/26 10:57:54;;;;;;;20.27;9.77;;;4.80;99.90;;;;;;5114170;27;20267;-68
2023/01/26 11:00:24;;;;;;;21.87;10.50;;;4.90;99.90;;;;;;5088092;28;20219;-68
2023/01/26 11:02:54;;;;;;;25.77;11.53;;;4.90;99.90;;;;;;5093769;28;20195;-68
2023/01/26 11:05:26;;;;;;;21.57;11.43;;;5.10;99.90;;;;;;5091560;28;20192;-68
2023/01/26 11:08:01;;;;;;;31.67;11.30;;;5.10;99.90;;;;;;5116059;27;20204;-68
2023/01/26 11:10:36;;;;;;;16.67;9.73;;;5.10;99.90;;;;;;5090086;28;20160;-68
2023/01/26 11:13:18;;;;;;;18.00;9.97;;;5.20;99.90;;;;;;5078096;28;20176;-68
2023/01/26 11:15:47;;;;;;;23.37;11.20;;;5.10;99.90;;;;;;5091361;28;20208;-68
2023/01/26 11:18:18;;;;;;;23.77;11.30;;;5.00;99.90;;;;;;5087795;28;21044;-68
2023/01/26 11:20:52;;;;;;;23.40;11.37;;;5.20;99.90;;;;;;5087918;28;20204;-68
2023/01/26 11:23:26;;;;;;;22.47;11.83;;;5.30;99.90;;;;;;5080983;28;20272;-68
2023/01/26 11:26:33;;;;;;;29.17;11.87;;;5.10;99.90;;;;;;5088081;28;20187;-67
2023/01/26 11:29:17;;;;;;;29.00;11.43;;;4.70;99.90;;;;;;5083175;28;20249;-67
2023/01/26 11:32:28;;;;;;;19.03;11.07;;;4.80;99.90;;;;;;5076201;28;20638;-67
2023/01/26 11:35:26;;;;;;;34.93;13.40;;;4.90;99.90;;;;;;5067430;28;20197;-68
2023/01/26 11:38:17;;;;;;;22.37;10.83;;;4.80;99.90;;;;;;5084675;28;20208;-68
2023/01/26 11:40:50;;;;;;;20.33;10.97;;;4.70;99.90;;;;;;5083255;28;20235;-68
2023/01/26 11:43:34;;;;;;;22.53;11.00;;;4.90;99.90;;;;;;5087153;28;20180;-68
2023/01/26 11:46:19;;;;;;;22.60;9.37;;;4.90;99.90;;;;;;5091104;28;20180;-67
2023/01/26 11:48:51;;;;;;;33.07;11.03;;;4.90;99.90;;;;;;5091477;28;20185;-68
2023/01/26 11:51:38;;;;;;;23.00;9.70;;;4.90;99.90;;;;;;5083461;28;20645;-68
2023/01/26 11:54:29;;;;;;;28.40;10.07;;;4.90;99.90;;;;;;5081606;28;20225;-67
2023/01/26 11:57:19;;;;;;;19.33;9.53;;;5.00;99.90;;;;;;5088474;28;20692;-67
2023/01/26 11:59:56;;;;;;;24.80;9.43;;;5.20;99.90;;;;;;5091905;28;20675;-68
2023/01/26 12:02:32;;;;;;;27.83;11.07;;;5.30;99.90;;;;;;5079442;28;20180;-67
2023/01/26 12:05:15;;;;;;;19.53;8.60;;;5.40;99.90;;;;;;5088577;28;20204;-67
2023/01/26 12:08:09;;;;;;;19.53;10.13;;;5.40;99.90;;;;;;5093862;28;20188;-67
2023/01/26 12:10:49;;;;;;;22.40;9.93;;;5.70;99.90;;;;;;5089588;28;20176;-67
2023/01/26 12:13:25;;;;;;;17.90;10.33;;;5.60;99.90;;;;;;5085364;28;20632;-67
2023/01/26 12:15:56;;;;;;;22.67;9.83;;;5.60;99.90;;;;;;5090865;28;20184;-67
2023/01/26 12:18:31;;;;;;;18.87;10.03;;;5.70;99.90;;;;;;5085593;28;20207;-67
2023/01/26 12:21:04;;;;;;;27.13;10.17;;;5.70;99.90;;;;;;5084030;28;20221;-67
2023/01/26 12:23:38;;;;;;;18.60;9.33;;;5.70;99.90;;;;;;5080707;28;20181;-67
2023/01/26 12:26:14;;;;;;;18.70;8.00;;;5.80;99.90;;;;;;5086052;28;20313;-67
2023/01/26 12:28:46;;;;;;;22.17;8.43;;;6.10;99.90;;;;;;5091726;28;20276;-67
2023/01/26 12:31:39;;;;;;;22.07;7.20;;;6.20;99.90;;;;;;5090671;28;20180;-67
2023/01/26 12:34:11;;;;;;;14.90;6.73;;;6.30;99.90;;;;;;5087279;28;20189;-67
2023/01/26 12:36:58;;;;;;;28.13;6.40;;;6.30;99.90;;;;;;5092324;28;20196;-68
2023/01/26 12:39:41;;;;;;;22.40;5.70;;;6.40;99.90;;;;;;5095504;28;20534;-68
2023/01/26 12:42:15;;;;;;;17.40;6.17;;;6.40;99.90;;;;;;5096200;28;20188;-68
2023/01/26 12:44:58;;;;;;;10.77;5.80;;;6.50;99.90;;;;;;5090273;28;20192;-68
2023/01/26 12:47:30;;;;;;;17.13;6.67;;;6.50;99.90;;;;;;5075297;28;20185;-68
2023/01/26 12:49:58;;;;;;;19.40;6.73;;;6.50;99.90;;;;;;5075769;28;20177;-68
2023/01/26 12:52:44;;;;;;;19.73;6.10;;;6.50;99.90;;;;;;5090744;28;20181;-68
2023/01/26 12:55:22;;;;;;;8.70;5.27;;;6.60;99.90;;;;;;5081778;28;20184;-68
2023/01/26 12:58:08;;;;;;;18.10;6.23;;;6.80;99.90;;;;;;5077207;28;20233;-69
2023/01/26 13:00:37;;;;;;;15.47;4.70;;;6.80;99.90;;;;;;5080042;28;20183;-68
2023/01/26 13:03:12;;;;;;;13.03;5.27;;;6.90;99.90;;;;;;5094105;28;20172;-69
2023/01/26 13:05:58;;;;;;;6.37;5.40;;;7.00;99.90;;;;;;5075011;28;20188;-68
2023/01/26 13:08:30;;;;;;;9.77;4.80;;;7.30;99.90;;;;;;5078777;28;20180;-69
2023/01/26 13:10:57;;;;;;;16.50;4.30;;;7.40;99.90;;;;;;5093170;28;20177;-68
2023/01/26 13:13:49;;;;;;;13.63;4.23;;;7.30;99.90;;;;;;5094960;28;20188;-68
2023/01/26 13:16:15;;;;;;;7.87;3.13;;;7.10;99.90;;;;;;5083382;28;20653;-69
2023/01/26 13:18:54;;;;;;;7.70;4.07;;;7.20;99.90;;;;;;5089580;28;20204;-69
2023/01/26 13:21:38;;;;;;;14.13;3.53;;;7.30;99.90;;;;;;5095294;28;20188;-69
2023/01/26 13:24:23;;;;;;;8.93;3.80;;;7.40;99.90;;;;;;5090999;28;20187;-69
2023/01/26 13:26:57;;;;;;;7.17;1.80;;;7.60;99.90;;;;;;5084755;28;20198;-68
2023/01/26 13:29:27;;;;;;;5.00;2.60;;;7.60;99.90;;;;;;5081604;28;20193;-69
2023/01/26 13:32:19;;;;;;;8.27;2.13;;;7.50;99.90;;;;;;5097803;28;20182;-69
2023/01/26 13:35:00;;;;;;;9.50;2.47;;;7.40;99.90;;;;;;5069720;28;20201;-69
2023/01/26 13:37:41;;;;;;;10.50;3.30;;;7.40;99.90;;;;;;5094006;28;20269;-69
2023/01/26 13:40:35;;;;;;;7.87;2.30;;;7.60;99.90;;;;;;5088933;28;20200;-69
2023/01/26 13:43:11;;;;;;;4.43;2.83;;;7.50;99.90;;;;;;5105762;28;20184;-69
2023/01/26 13:45:49;;;;;;;5.87;2.30;;;7.60;99.90;;;;;;5085344;28;20918;-69
2023/01/26 13:48:23;;;;;;;9.83;2.30;;;7.60;99.90;;;;;;5093170;28;20184;-69